createdAt,value
2023-03-18T00:00:28.358Z,3.22
2023-03-18T00:02:55.169Z,3.30
2023-03-18T00:05:21.970Z,3.00
2023-03-18T00:07:50.171Z,3.67
2023-03-18T00:10:17.329Z,3.10
2023-03-18T00:12:44.928Z,3.63
2023-03-18T00:15:14.144Z,3.60
2023-03-18T00:17:41.263Z,3.33
2023-03-18T00:20:09.416Z,3.58
2023-03-18T00:22:38.004Z,3.95
2023-03-18T00:25:07.597Z,3.40
2023-03-18T00:27:35.857Z,3.60
2023-03-18T00:30:05.039Z,3.45
2023-03-18T00:32:32.715Z,3.45
2023-03-18T00:35:01.160Z,2.92
2023-03-18T00:37:30.996Z,3.65
2023-03-18T00:40:17.266Z,3.70
2023-03-18T00:42:47.881Z,3.45
2023-03-18T00:45:17.061Z,3.47
2023-03-18T00:47:44.374Z,3.90
2023-03-18T00:50:12.378Z,3.20
2023-03-18T00:52:39.530Z,3.90
2023-03-18T00:55:07.629Z,3.45
2023-03-18T00:57:34.688Z,3.35
2023-03-18T01:00:02.491Z,3.38
2023-03-18T01:02:29.820Z,3.45
2023-03-18T01:04:57.095Z,3.55
2023-03-18T01:07:24.483Z,3.53
2023-03-18T01:09:51.224Z,3.58
2023-03-18T01:12:18.537Z,3.80
2023-03-18T01:14:45.344Z,3.60
2023-03-18T01:17:12.084Z,3.30
2023-03-18T01:19:39.098Z,3.97
2023-03-18T01:22:06.561Z,3.70
2023-03-18T01:24:40.266Z,3.70
2023-03-18T01:27:07.661Z,4.05
2023-03-18T01:29:36.231Z,3.78
2023-03-18T01:32:05.437Z,4.07
2023-03-18T01:34:32.189Z,3.95
2023-03-18T01:36:59.033Z,3.97
2023-03-18T01:39:28.999Z,4.20
2023-03-18T01:41:55.713Z,4.15
2023-03-18T01:44:29.141Z,3.47
2023-03-18T01:46:57.024Z,3.88
2023-03-18T01:49:56.619Z,3.72
2023-03-18T01:52:27.160Z,3.85
2023-03-18T01:55:01.532Z,4.15
2023-03-18T01:57:32.687Z,4.07
2023-03-18T02:00:01.681Z,4.53
2023-03-18T02:02:30.478Z,4.07
2023-03-18T02:05:01.721Z,4.32
2023-03-18T02:07:31.821Z,4.77
2023-03-18T02:10:02.491Z,4.28
2023-03-18T02:12:33.709Z,4.60
2023-03-18T02:15:03.778Z,4.53
2023-03-18T02:17:34.577Z,4.40
2023-03-18T02:20:43.040Z,4.70
2023-03-18T02:23:26.993Z,4.55
2023-03-18T02:26:06.724Z,4.75
2023-03-18T02:28:35.267Z,4.93
2023-03-18T02:31:05.663Z,4.88
2023-03-18T02:33:38.805Z,5.30
2023-03-18T02:36:22.551Z,4.93
2023-03-18T02:38:51.322Z,5.68
2023-03-18T02:41:27.218Z,5.22
2023-03-18T02:43:54.575Z,5.07
2023-03-18T02:46:38.308Z,4.80
2023-03-18T02:49:07.680Z,5.65
2023-03-18T02:51:36.869Z,5.70
2023-03-18T02:54:08.157Z,5.95
2023-03-18T02:56:35.067Z,5.63
2023-03-18T02:59:01.887Z,5.82
2023-03-18T03:01:29.980Z,5.07
2023-03-18T03:03:56.816Z,5.38
2023-03-18T03:06:25.401Z,5.47
2023-03-18T03:08:52.756Z,5.38
2023-03-18T03:11:20.586Z,6.35
2023-03-18T03:13:47.667Z,5.68
2023-03-18T03:16:16.891Z,5.05
2023-03-18T03:18:44.060Z,5.97
2023-03-18T03:21:12.854Z,5.78
2023-03-18T03:23:40.155Z,4.85
2023-03-18T03:26:06.948Z,5.30
2023-03-18T03:28:33.993Z,6.13
2023-03-18T03:31:00.954Z,5.60
2023-03-18T03:33:28.375Z,5.55
2023-03-18T03:35:58.124Z,5.95
2023-03-18T03:38:26.436Z,6.18
2023-03-18T03:40:55.276Z,5.65
2023-03-18T03:43:22.552Z,6.28
2023-03-18T03:45:49.578Z,6.10
2023-03-18T03:48:16.511Z,5.78
2023-03-18T03:50:43.304Z,6.35
2023-03-18T03:53:10.663Z,5.82
2023-03-18T03:55:37.869Z,6.68
2023-03-18T03:58:05.361Z,6.13
2023-03-18T04:00:33.253Z,6.18
2023-03-18T04:03:00.703Z,6.28
2023-03-18T04:05:28.176Z,5.85
2023-03-18T04:08:00.082Z,6.38
2023-03-18T04:10:36.624Z,6.55
2023-03-18T04:13:05.641Z,7.55
2023-03-18T04:15:33.085Z,7.20
2023-03-18T04:18:07.215Z,7.25
2023-03-18T04:20:37.532Z,6.80
2023-03-18T04:23:09.540Z,7.63
2023-03-18T04:25:36.308Z,7.35
2023-03-18T04:28:04.075Z,6.30
2023-03-18T04:30:32.149Z,7.00
2023-03-18T04:33:03.744Z,7.20
2023-03-18T04:35:32.194Z,7.15
2023-03-18T04:37:59.013Z,7.22
2023-03-18T04:40:26.882Z,7.13
2023-03-18T04:42:53.617Z,7.10
2023-03-18T04:45:25.019Z,7.10
2023-03-18T04:47:54.359Z,8.05
2023-03-18T04:50:21.698Z,7.45
2023-03-18T04:52:48.881Z,6.85
2023-03-18T04:55:20.640Z,8.00
2023-03-18T04:57:50.420Z,7.78
2023-03-18T05:00:23.587Z,7.30
2023-03-18T05:02:56.648Z,7.45
2023-03-18T05:05:25.930Z,7.53
2023-03-18T05:07:53.236Z,7.72
2023-03-18T05:10:21.454Z,8.45
2023-03-18T05:12:48.713Z,7.18
2023-03-18T05:15:19.490Z,6.80
2023-03-18T05:17:52.975Z,7.45
2023-03-18T05:20:19.981Z,7.53
2023-03-18T05:22:47.663Z,7.55
2023-03-18T05:25:28.493Z,7.13
2023-03-18T05:27:57.649Z,7.38
2023-03-18T05:30:34.398Z,7.45
2023-03-18T05:33:01.241Z,8.57
2023-03-18T05:35:40.635Z,7.32
2023-03-18T05:38:07.539Z,7.97
2023-03-18T05:40:34.361Z,8.50
2023-03-18T05:43:10.374Z,8.20
2023-03-18T05:45:50.139Z,7.68
2023-03-18T05:48:19.753Z,7.78
2023-03-18T05:50:52.486Z,7.90
2023-03-18T05:53:23.577Z,8.43
2023-03-18T05:55:57.752Z,8.90
2023-03-18T05:58:26.112Z,8.77
2023-03-18T06:01:03.150Z,8.98
2023-03-18T06:03:30.078Z,9.55
2023-03-18T06:05:56.881Z,8.30
2023-03-18T06:08:23.688Z,8.68
2023-03-18T06:10:50.464Z,9.48
2023-03-18T06:13:17.572Z,9.10
2023-03-18T06:15:48.711Z,9.60
2023-03-18T06:18:15.599Z,10.50
2023-03-18T06:20:42.511Z,10.00
2023-03-18T06:23:10.082Z,10.70
2023-03-18T06:25:36.854Z,10.48
2023-03-18T06:28:03.860Z,10.90
2023-03-18T06:30:32.311Z,13.18
2023-03-18T06:33:00.178Z,12.60
2023-03-18T06:35:28.221Z,13.05
2023-03-18T06:37:55.010Z,12.95
2023-03-18T06:40:22.333Z,13.23
2023-03-18T06:42:51.151Z,12.73
2023-03-18T06:45:27.135Z,13.23
2023-03-18T06:48:05.020Z,13.68
2023-03-18T06:50:34.972Z,14.13
2023-03-18T06:53:02.749Z,12.93
2023-03-18T06:55:33.866Z,14.82
2023-03-18T06:58:03.223Z,14.68
2023-03-18T07:00:42.167Z,14.98
2023-03-18T07:03:15.811Z,14.30
2023-03-18T07:05:43.127Z,14.88
2023-03-18T07:08:12.535Z,14.85
2023-03-18T07:10:39.541Z,16.10
2023-03-18T07:13:13.295Z,15.43
2023-03-18T07:15:41.474Z,16.85
2023-03-18T07:18:11.929Z,15.27
2023-03-18T07:20:38.996Z,16.50
2023-03-18T07:23:06.107Z,15.88
2023-03-18T07:25:33.238Z,16.77
2023-03-18T07:28:00.483Z,17.05
2023-03-18T07:30:28.683Z,16.17
2023-03-18T07:32:55.745Z,16.90
2023-03-18T07:35:22.720Z,15.38
2023-03-18T07:37:50.010Z,16.33
2023-03-18T07:40:17.130Z,16.13
2023-03-18T07:42:43.896Z,15.27
2023-03-18T07:45:11.077Z,16.40
2023-03-18T07:47:38.284Z,16.38
2023-03-18T07:50:05.692Z,16.30
2023-03-18T07:52:32.456Z,14.55
2023-03-18T07:54:59.240Z,17.25
2023-03-18T07:57:26.101Z,15.40
2023-03-18T07:59:53.162Z,15.82
2023-03-18T08:02:21.718Z,16.48
2023-03-18T08:04:48.512Z,15.88
2023-03-18T08:07:15.219Z,17.13
2023-03-18T08:09:41.998Z,16.88
2023-03-18T08:12:09.009Z,16.48
2023-03-18T08:14:35.983Z,16.50
2023-03-18T08:17:03.765Z,17.60
2023-03-18T08:19:31.017Z,16.38
2023-03-18T08:21:57.765Z,17.27
2023-03-18T08:24:24.704Z,16.92
2023-03-18T08:26:51.531Z,17.20
2023-03-18T08:29:18.270Z,17.40
2023-03-18T08:31:45.239Z,17.05
2023-03-18T08:34:12.141Z,17.92
2023-03-18T08:36:41.712Z,17.90
2023-03-18T08:39:09.874Z,17.45
2023-03-18T08:41:37.320Z,19.10
2023-03-18T08:44:06.499Z,17.80
2023-03-18T08:46:33.307Z,19.08
2023-03-18T08:49:00.549Z,17.40
2023-03-18T08:51:27.343Z,18.17
2023-03-18T08:53:54.363Z,18.63
2023-03-18T08:56:21.600Z,18.90
2023-03-18T08:58:48.634Z,18.50
2023-03-18T09:01:16.682Z,17.65
2023-03-18T09:03:44.779Z,18.30
2023-03-18T09:06:11.669Z,17.38
2023-03-18T09:08:39.584Z,18.38
2023-03-18T09:11:07.218Z,17.42
2023-03-18T09:13:33.958Z,17.60
2023-03-18T09:16:00.865Z,18.15
2023-03-18T09:18:28.256Z,17.05
2023-03-18T09:20:55.238Z,16.17
2023-03-18T09:23:22.497Z,16.92
2023-03-18T09:25:50.198Z,15.80
2023-03-18T09:28:16.946Z,14.93
2023-03-18T09:30:43.727Z,15.70
2023-03-18T09:33:11.551Z,15.02
2023-03-18T09:35:39.677Z,14.20
2023-03-18T09:38:07.383Z,15.23
2023-03-18T09:40:38.594Z,13.30
2023-03-18T09:43:23.383Z,12.35
2023-03-18T09:46:08.287Z,11.68
2023-03-18T09:48:53.730Z,10.57
2023-03-18T09:51:46.616Z,11.35
2023-03-18T09:54:20.990Z,10.43
2023-03-18T09:56:48.227Z,10.20
2023-03-18T09:59:23.857Z,11.05
2023-03-18T10:01:56.629Z,10.50
2023-03-18T10:04:48.321Z,10.40
2023-03-18T10:07:19.993Z,11.25
2023-03-18T10:09:52.280Z,10.77
2023-03-18T10:12:34.089Z,10.55
2023-03-18T10:15:16.668Z,11.93
2023-03-18T10:17:58.249Z,12.85
2023-03-18T10:20:44.637Z,11.88
2023-03-18T10:23:38.601Z,13.70
2023-03-18T10:26:17.549Z,12.95
2023-03-18T10:28:59.622Z,13.50
2023-03-18T10:31:32.377Z,15.13
2023-03-18T10:34:01.329Z,13.43
2023-03-18T10:36:49.292Z,14.40
2023-03-18T10:39:24.812Z,14.65
2023-03-18T10:41:53.831Z,15.00
2023-03-18T10:44:40.266Z,15.20
2023-03-18T10:47:19.031Z,15.00
2023-03-18T10:50:06.008Z,15.40
2023-03-18T10:52:32.694Z,14.35
2023-03-18T10:54:59.729Z,15.10
2023-03-18T10:57:26.983Z,16.08
2023-03-18T10:59:54.063Z,15.30
2023-03-18T11:02:29.228Z,14.75
2023-03-18T11:05:01.659Z,14.70
2023-03-18T11:07:28.699Z,14.65
2023-03-18T11:10:12.236Z,13.55
2023-03-18T11:12:38.983Z,13.30
2023-03-18T11:15:11.826Z,13.27
2023-03-18T11:17:40.618Z,12.20
2023-03-18T11:20:31.770Z,11.63
2023-03-18T11:23:12.671Z,11.65
2023-03-18T11:25:40.637Z,12.20
2023-03-18T11:28:26.980Z,11.75
2023-03-18T11:30:57.308Z,10.65
2023-03-18T11:33:26.927Z,12.68
2023-03-18T11:36:06.126Z,10.77
2023-03-18T11:38:35.062Z,9.60
2023-03-18T11:41:22.300Z,9.80
2023-03-18T11:44:05.314Z,9.73
2023-03-18T11:46:43.474Z,9.38
2023-03-18T11:49:15.554Z,9.18
2023-03-18T11:52:22.685Z,10.27
2023-03-18T11:55:09.498Z,8.93
2023-03-18T11:58:20.190Z,8.73
2023-03-18T12:00:55.299Z,5.70
2023-03-18T12:03:36.706Z,6.40
2023-03-18T12:06:06.478Z,6.43
2023-03-18T12:08:39.272Z,6.88
2023-03-18T12:11:08.758Z,8.25
2023-03-18T12:13:48.278Z,7.75
2023-03-18T12:16:56.693Z,8.68
2023-03-18T12:19:51.296Z,8.07
2023-03-18T12:22:35.941Z,7.60
2023-03-18T12:25:14.498Z,8.20
2023-03-18T12:27:55.160Z,6.95
2023-03-18T12:30:36.788Z,6.32
2023-03-18T12:33:21.654Z,7.35
2023-03-18T12:36:07.257Z,6.13
2023-03-18T12:38:54.114Z,6.70
2023-03-18T12:42:02.193Z,7.00
2023-03-18T12:44:59.177Z,6.75
2023-03-18T12:47:38.722Z,6.45
2023-03-18T12:50:08.890Z,6.75
2023-03-18T12:52:49.567Z,6.45
2023-03-18T12:55:32.822Z,5.55
2023-03-18T12:58:07.457Z,5.95
2023-03-18T13:00:53.048Z,5.47
2023-03-18T13:03:32.872Z,5.90
2023-03-18T13:06:12.262Z,4.68
2023-03-18T13:08:42.037Z,5.22
2023-03-18T13:11:19.680Z,4.82
2023-03-18T13:13:52.174Z,5.28
2023-03-18T13:18:51.860Z,4.22
2023-03-18T13:24:31.677Z,4.47
2023-03-18T13:27:01.629Z,3.97
2023-03-18T13:29:53.502Z,3.80
2023-03-18T13:32:50.757Z,3.72
2023-03-18T13:35:52.943Z,4.07
2023-03-18T13:38:19.661Z,4.15
2023-03-18T13:41:12.132Z,3.90
2023-03-18T13:43:42.561Z,4.90
2023-03-18T13:46:25.358Z,4.75
2023-03-18T13:48:57.539Z,4.47
2023-03-18T13:51:24.226Z,3.60
2023-03-18T13:53:54.536Z,3.50
2023-03-18T13:56:39.220Z,3.85
2023-03-18T13:59:07.393Z,3.47
2023-03-18T14:01:36.846Z,3.42
2023-03-18T14:04:30.281Z,3.10
2023-03-18T14:07:13.736Z,3.10
2023-03-18T14:09:52.833Z,2.72
2023-03-18T14:12:38.210Z,3.20
2023-03-18T14:15:12.842Z,3.20
2023-03-18T14:17:53.709Z,2.80
2023-03-18T14:20:23.789Z,2.92
2023-03-18T14:23:21.096Z,3.08
2023-03-18T14:25:54.413Z,2.10
2023-03-18T14:28:26.258Z,2.35
2023-03-18T14:31:12.733Z,2.65
2023-03-18T14:33:59.710Z,2.47
2023-03-18T14:36:47.396Z,2.42
2023-03-18T14:39:46.551Z,2.03
2023-03-18T14:42:20.986Z,2.30
2023-03-18T14:44:52.479Z,2.53
2023-03-18T14:47:44.653Z,2.50
2023-03-18T14:50:34.293Z,2.47
2023-03-18T14:53:08.692Z,2.38
2023-03-18T14:55:37.411Z,2.58
2023-03-18T14:58:04.975Z,2.50
2023-03-18T15:00:36.553Z,2.17
2023-03-18T15:03:09.125Z,2.10
2023-03-18T15:05:41.502Z,2.20
2023-03-18T15:08:13.353Z,1.98
2023-03-18T15:10:40.254Z,2.53
2023-03-18T15:13:12.299Z,2.17
2023-03-18T15:15:39.994Z,2.13
2023-03-18T15:18:32.560Z,2.15
2023-03-18T15:21:10.203Z,2.30
2023-03-18T15:23:39.045Z,2.25
2023-03-18T15:26:10.697Z,2.80
2023-03-18T15:28:38.509Z,3.10
2023-03-18T15:31:06.322Z,2.72
2023-03-18T15:33:38.131Z,2.72
2023-03-18T15:36:13.966Z,2.25
2023-03-18T15:38:48.606Z,2.30
2023-03-18T15:41:17.808Z,2.33
2023-03-18T15:43:47.051Z,2.15
2023-03-18T15:46:23.898Z,2.28
2023-03-18T15:48:56.854Z,2.17
2023-03-18T15:51:40.408Z,2.20
2023-03-18T15:54:15.397Z,2.22
2023-03-18T15:56:49.201Z,2.00
2023-03-18T15:59:25.806Z,2.00
2023-03-18T16:01:54.819Z,2.58
2023-03-18T16:04:21.882Z,2.17
2023-03-18T16:06:49.074Z,1.98
2023-03-18T16:09:20.980Z,2.33
2023-03-18T16:12:01.506Z,1.95
2023-03-18T16:14:42.771Z,2.00
2023-03-18T16:17:21.107Z,2.08
2023-03-18T16:19:48.643Z,2.03
2023-03-18T16:22:15.502Z,1.80
2023-03-18T16:24:43.821Z,1.85
2023-03-18T16:27:34.753Z,2.13
2023-03-18T16:30:01.994Z,2.25
2023-03-18T16:32:29.001Z,2.40
2023-03-18T16:34:56.805Z,2.55
2023-03-18T16:37:26.306Z,2.40
2023-03-18T16:39:57.159Z,2.67
2023-03-18T16:42:24.604Z,2.72
2023-03-18T16:44:52.033Z,2.60
2023-03-18T16:47:25.217Z,2.72
2023-03-18T16:49:52.476Z,3.17
2023-03-18T16:52:19.366Z,2.80
2023-03-18T16:54:46.099Z,3.70
2023-03-18T16:57:21.480Z,3.10
2023-03-18T16:59:51.820Z,3.20
2023-03-18T17:02:32.156Z,2.42
2023-03-18T17:04:59.357Z,2.92
2023-03-18T17:07:27.400Z,2.75
2023-03-18T17:09:54.246Z,2.67
2023-03-18T17:12:21.908Z,2.95
2023-03-18T17:14:55.314Z,3.15
2023-03-18T17:17:27.876Z,2.85
2023-03-18T17:22:23.415Z,3.42
2023-03-18T17:24:50.547Z,3.78
2023-03-18T17:27:25.463Z,3.78
2023-03-18T17:29:53.036Z,3.25
2023-03-18T17:32:22.253Z,3.40
2023-03-18T17:34:53.929Z,3.67
2023-03-18T17:37:21.276Z,3.27
2023-03-18T17:39:47.990Z,3.40
2023-03-18T17:42:29.072Z,3.85
2023-03-18T17:44:56.167Z,4.15
2023-03-18T17:47:22.888Z,3.88
2023-03-18T17:49:49.686Z,3.60
2023-03-18T17:52:21.402Z,4.13
2023-03-18T17:54:48.336Z,3.43
2023-03-18T17:57:16.229Z,3.70
2023-03-18T17:59:43.547Z,4.07
2023-03-18T18:02:18.900Z,3.53
2023-03-18T18:04:46.220Z,4.07
2023-03-18T18:07:18.142Z,4.18
2023-03-18T18:09:45.327Z,3.83
2023-03-18T18:12:23.030Z,6.28
2023-03-18T18:14:50.258Z,6.45
2023-03-18T18:17:17.775Z,5.35
2023-03-18T18:19:45.834Z,3.85
2023-03-18T18:22:21.655Z,5.00
2023-03-18T18:24:50.509Z,4.22
2023-03-18T18:27:17.321Z,4.20
2023-03-18T18:29:45.834Z,4.32
2023-03-18T18:32:13.219Z,3.85
2023-03-18T18:34:40.047Z,5.43
2023-03-18T18:37:07.291Z,4.00
2023-03-18T18:39:34.040Z,4.18
2023-03-18T18:42:00.826Z,4.70
2023-03-18T18:44:28.452Z,4.10
2023-03-18T18:46:55.745Z,4.07
2023-03-18T18:49:24.556Z,4.30
2023-03-18T18:51:56.186Z,4.50
2023-03-18T18:54:24.723Z,4.50
2023-03-18T18:56:52.179Z,4.45
2023-03-18T18:59:24.814Z,4.43
2023-03-18T19:01:52.230Z,4.95
2023-03-18T19:04:21.772Z,5.75
2023-03-18T19:06:50.767Z,5.70
2023-03-18T19:09:21.008Z,7.05
2023-03-18T19:11:48.489Z,7.43
2023-03-18T19:14:18.916Z,8.90
2023-03-18T19:16:46.758Z,8.00
2023-03-18T19:19:24.085Z,8.50
2023-03-18T19:21:51.111Z,9.10
2023-03-18T19:24:28.381Z,8.98
2023-03-18T19:27:03.348Z,9.50
2023-03-18T19:29:32.579Z,9.23
2023-03-18T19:32:01.350Z,8.95
2023-03-18T19:34:29.787Z,8.77
2023-03-18T19:36:56.990Z,9.23
2023-03-18T19:39:25.331Z,8.88
2023-03-18T19:41:52.482Z,9.75
2023-03-18T19:44:25.099Z,10.13
2023-03-18T19:49:21.891Z,8.95
2023-03-18T19:51:50.111Z,9.60
2023-03-18T19:54:27.094Z,10.13
2023-03-18T19:56:55.725Z,10.57
2023-03-18T19:59:24.615Z,10.75
2023-03-18T20:01:51.656Z,10.13
2023-03-18T20:04:20.258Z,10.55
2023-03-18T20:06:50.975Z,9.70
2023-03-18T20:09:18.023Z,10.95
2023-03-18T20:11:46.191Z,10.55
2023-03-18T20:14:27.062Z,11.10
2023-03-18T20:16:54.917Z,10.90
2023-03-18T20:19:21.899Z,8.98
2023-03-18T20:21:49.403Z,10.63
2023-03-18T20:24:18.595Z,10.05
2023-03-18T20:26:45.542Z,10.38
2023-03-18T20:29:21.036Z,9.90
2023-03-18T20:31:47.955Z,10.98
2023-03-18T20:34:14.937Z,10.18
2023-03-18T20:36:42.616Z,9.43
2023-03-18T20:39:20.444Z,9.40
2023-03-18T20:41:48.271Z,8.95
2023-03-18T20:44:15.138Z,8.23
2023-03-18T20:46:43.032Z,9.02
2023-03-18T20:49:11.696Z,8.13
2023-03-18T20:51:40.843Z,8.45
2023-03-18T20:54:17.830Z,9.27
2023-03-18T20:56:46.004Z,7.82
2023-03-18T20:59:13.744Z,8.30
2023-03-18T21:01:41.115Z,8.18
2023-03-18T21:04:11.788Z,8.30
2023-03-18T21:06:39.102Z,8.35
2023-03-18T21:09:07.331Z,7.55
2023-03-18T21:11:34.353Z,8.38
2023-03-18T21:14:01.633Z,7.68
2023-03-18T21:16:28.540Z,7.75
2023-03-18T21:18:55.390Z,7.43
2023-03-18T21:21:36.833Z,7.53
2023-03-18T21:24:17.504Z,7.40
2023-03-18T21:26:54.316Z,7.30
2023-03-18T21:29:30.734Z,7.95
2023-03-18T21:31:57.578Z,7.05
2023-03-18T21:34:24.908Z,7.03
2023-03-18T21:36:52.366Z,7.57
2023-03-18T21:39:20.926Z,7.03
2023-03-18T21:41:47.820Z,7.90
2023-03-18T21:44:14.929Z,8.13
2023-03-18T21:46:41.763Z,7.38
2023-03-18T21:49:08.579Z,8.45
2023-03-18T21:51:39.690Z,8.07
2023-03-18T21:54:18.990Z,8.38
2023-03-18T21:56:45.919Z,8.55
2023-03-18T21:59:12.862Z,7.82
2023-03-18T22:01:39.928Z,8.57
2023-03-18T22:04:06.919Z,9.18
2023-03-18T22:06:34.250Z,8.30
2023-03-18T22:09:01.073Z,8.18
2023-03-18T22:11:27.861Z,9.25
2023-03-18T22:13:54.593Z,8.88
2023-03-18T22:16:21.648Z,10.00
2023-03-18T22:18:48.509Z,9.02
2023-03-18T22:21:25.389Z,10.02
2023-03-18T22:23:53.233Z,8.45
2023-03-18T22:26:21.080Z,9.25
2023-03-18T22:28:49.688Z,9.82
2023-03-18T22:31:25.695Z,9.93
2023-03-18T22:33:53.634Z,10.80
2023-03-18T22:36:25.469Z,10.52
2023-03-18T22:38:52.787Z,12.15
2023-03-18T22:41:29.534Z,11.80
2023-03-18T22:43:57.968Z,12.00
2023-03-18T22:46:24.794Z,13.13
2023-03-18T22:48:51.696Z,11.98
2023-03-18T22:51:39.817Z,12.13
2023-03-18T22:54:07.790Z,11.80
2023-03-18T22:56:34.556Z,11.90
2023-03-18T22:59:04.388Z,12.70
2023-03-18T23:01:31.689Z,11.95
2023-03-18T23:03:58.825Z,11.93
2023-03-18T23:06:27.363Z,12.32
2023-03-18T23:08:54.449Z,11.50
2023-03-18T23:11:21.550Z,11.63
2023-03-18T23:13:50.095Z,11.48
2023-03-18T23:16:20.634Z,11.45
2023-03-18T23:18:48.280Z,11.13
2023-03-18T23:21:20.384Z,10.02
2023-03-18T23:23:47.999Z,11.15
2023-03-18T23:26:16.552Z,11.63
2023-03-18T23:28:45.396Z,10.80
2023-03-18T23:31:13.963Z,11.10
2023-03-18T23:33:40.986Z,11.55
2023-03-18T23:36:08.222Z,11.70
2023-03-18T23:38:35.183Z,11.50
2023-03-18T23:41:02.117Z,11.60
2023-03-18T23:43:29.158Z,11.18
2023-03-18T23:45:56.294Z,11.10
2023-03-18T23:48:23.340Z,10.90
2023-03-18T23:50:50.258Z,10.55
2023-03-18T23:53:17.155Z,11.27
2023-03-18T23:55:44.105Z,10.60
2023-03-18T23:58:10.860Z,12.05
